createdAt,value
2022-10-22T00:00:27.540Z,989.21
2022-10-22T00:01:27.526Z,989.15
2022-10-22T00:02:27.561Z,989.23
2022-10-22T00:03:27.529Z,989.26
2022-10-22T00:04:31.455Z,989.26
2022-10-22T00:05:28.511Z,989.32
2022-10-22T00:06:27.529Z,989.34
2022-10-22T00:07:27.482Z,989.32
2022-10-22T00:08:27.487Z,989.32
2022-10-22T00:09:27.492Z,989.26
2022-10-22T00:10:27.465Z,989.33
2022-10-22T00:11:27.462Z,989.35
2022-10-22T00:12:27.453Z,989.39
2022-10-22T00:13:27.451Z,989.39
2022-10-22T00:14:27.454Z,989.43
2022-10-22T00:15:27.428Z,989.46
2022-10-22T00:16:27.429Z,989.41
2022-10-22T00:17:27.429Z,989.46
2022-10-22T00:18:27.413Z,989.43
2022-10-22T00:19:27.641Z,989.41
2022-10-22T00:20:27.397Z,989.41
2022-10-22T00:21:27.385Z,989.43
2022-10-22T00:22:27.420Z,989.44
2022-10-22T00:23:27.377Z,989.41
2022-10-22T00:24:27.382Z,989.48
2022-10-22T00:25:27.356Z,989.47
2022-10-22T00:26:27.363Z,989.47
2022-10-22T00:27:27.345Z,989.52
2022-10-22T00:28:27.345Z,989.61
2022-10-22T00:29:27.340Z,989.60
2022-10-22T00:30:27.342Z,989.64
2022-10-22T00:31:27.334Z,989.66
2022-10-22T00:32:27.322Z,989.63
2022-10-22T00:33:27.305Z,989.60
2022-10-22T00:34:27.304Z,989.65
2022-10-22T00:35:27.849Z,989.64
2022-10-22T00:36:27.820Z,989.69
2022-10-22T00:37:27.279Z,989.68
2022-10-22T00:38:27.292Z,989.64
2022-10-22T00:39:27.259Z,989.75
2022-10-22T00:40:27.261Z,989.76
2022-10-22T00:41:28.070Z,989.82
2022-10-22T00:42:27.243Z,989.85
2022-10-22T00:43:27.236Z,989.83
2022-10-22T00:44:27.228Z,989.82
2022-10-22T00:45:27.259Z,989.87
2022-10-22T00:46:27.237Z,989.85
2022-10-22T00:47:27.207Z,989.88
2022-10-22T00:48:27.207Z,989.84
2022-10-22T00:49:27.198Z,989.87
2022-10-22T00:50:27.187Z,989.86
2022-10-22T00:51:27.198Z,989.78
2022-10-22T00:52:27.169Z,989.83
2022-10-22T00:53:27.159Z,989.86
2022-10-22T00:54:27.186Z,989.82
2022-10-22T00:55:27.165Z,989.79
2022-10-22T00:56:27.149Z,989.80
2022-10-22T00:57:27.149Z,989.81
2022-10-22T00:58:27.141Z,989.83
2022-10-22T00:59:27.140Z,989.88
2022-10-22T01:00:27.112Z,989.86
2022-10-22T01:01:27.123Z,989.88
2022-10-22T01:02:27.106Z,989.81
2022-10-22T01:03:27.092Z,989.87
2022-10-22T01:04:27.094Z,989.86
2022-10-22T01:05:27.084Z,989.84
2022-10-22T01:06:27.067Z,989.79
2022-10-22T01:07:27.069Z,989.78
2022-10-22T01:08:27.059Z,989.73
2022-10-22T01:09:27.049Z,989.72
2022-10-22T01:10:27.073Z,989.71
2022-10-22T01:11:27.718Z,989.71
2022-10-22T01:12:27.026Z,989.74
2022-10-22T01:13:27.067Z,989.66
2022-10-22T01:14:27.022Z,989.69
2022-10-22T01:15:27.005Z,989.64
2022-10-22T01:16:27.020Z,989.56
2022-10-22T01:17:27.022Z,989.66
2022-10-22T01:18:26.984Z,989.62
2022-10-22T01:19:26.981Z,989.54
2022-10-22T01:20:26.971Z,989.50
2022-10-22T01:21:26.981Z,989.52
2022-10-22T01:22:26.978Z,989.49
2022-10-22T01:23:26.945Z,989.50
2022-10-22T01:24:26.950Z,989.51
2022-10-22T01:25:26.937Z,989.45
2022-10-22T01:26:26.958Z,989.49
2022-10-22T01:27:26.920Z,989.38
2022-10-22T01:28:26.924Z,989.41
2022-10-22T01:29:26.907Z,989.40
2022-10-22T01:30:26.894Z,989.38
2022-10-22T01:31:26.894Z,989.40
2022-10-22T01:32:26.882Z,989.31
2022-10-22T01:33:26.891Z,989.38
2022-10-22T01:34:26.873Z,989.37
2022-10-22T01:35:26.914Z,989.34
2022-10-22T01:36:26.861Z,989.37
2022-10-22T01:37:26.847Z,989.33
2022-10-22T01:38:26.856Z,989.35
2022-10-22T01:39:26.830Z,989.43
2022-10-22T01:40:26.851Z,989.39
2022-10-22T01:41:26.823Z,989.48
2022-10-22T01:42:26.834Z,989.46
2022-10-22T01:43:26.801Z,989.39
2022-10-22T01:44:26.903Z,989.44
2022-10-22T01:45:26.799Z,989.38
2022-10-22T01:46:26.778Z,989.38
2022-10-22T01:47:26.794Z,989.39
2022-10-22T01:48:26.774Z,989.36
2022-10-22T01:49:26.761Z,989.43
2022-10-22T01:50:27.314Z,989.46
2022-10-22T01:51:26.750Z,989.44
2022-10-22T01:52:26.739Z,989.50
2022-10-22T01:53:26.745Z,989.47
2022-10-22T01:54:26.727Z,989.51
2022-10-22T01:55:27.283Z,989.46
2022-10-22T01:56:26.735Z,989.45
2022-10-22T01:57:26.712Z,989.53
2022-10-22T01:58:26.731Z,989.46
2022-10-22T01:59:26.693Z,989.43
2022-10-22T02:00:26.736Z,989.46
2022-10-22T02:01:26.864Z,989.46
2022-10-22T02:02:26.676Z,989.48
2022-10-22T02:03:26.696Z,989.46
2022-10-22T02:04:26.663Z,989.45
2022-10-22T02:05:26.649Z,989.45
2022-10-22T02:06:27.114Z,989.42
2022-10-22T02:07:26.638Z,989.33
2022-10-22T02:08:26.630Z,989.38
2022-10-22T02:09:26.627Z,989.36
2022-10-22T02:10:26.637Z,989.38
2022-10-22T02:11:26.612Z,989.36
2022-10-22T02:12:26.603Z,989.36
2022-10-22T02:13:26.589Z,989.31
2022-10-22T02:14:26.602Z,989.38
2022-10-22T02:15:27.249Z,989.33
2022-10-22T02:16:26.574Z,989.37
2022-10-22T02:17:26.563Z,989.40
2022-10-22T02:18:26.558Z,989.40
2022-10-22T02:19:26.543Z,989.41
2022-10-22T02:20:26.543Z,989.44
2022-10-22T02:21:26.542Z,989.43
2022-10-22T02:22:26.524Z,989.49
2022-10-22T02:23:26.523Z,989.45
2022-10-22T02:24:26.535Z,989.48
2022-10-22T02:25:26.510Z,989.50
2022-10-22T02:26:26.932Z,989.47
2022-10-22T02:27:27.169Z,989.48
2022-10-22T02:28:26.480Z,989.46
2022-10-22T02:29:26.499Z,989.51
2022-10-22T02:30:26.498Z,989.46
2022-10-22T02:31:26.461Z,989.45
2022-10-22T02:32:26.458Z,989.43
2022-10-22T02:33:26.454Z,989.43
2022-10-22T02:34:26.641Z,989.38
2022-10-22T02:35:26.448Z,989.36
2022-10-22T02:36:26.442Z,989.41
2022-10-22T02:37:26.444Z,989.45
2022-10-22T02:38:26.418Z,989.47
2022-10-22T02:39:26.429Z,989.51
2022-10-22T02:40:26.418Z,989.47
2022-10-22T02:41:26.453Z,989.48
2022-10-22T02:42:26.411Z,989.49
2022-10-22T02:43:26.388Z,989.52
2022-10-22T02:44:26.378Z,989.49
2022-10-22T02:45:26.370Z,989.49
2022-10-22T02:46:26.384Z,989.49
2022-10-22T02:47:26.361Z,989.50
2022-10-22T02:48:26.362Z,989.54
2022-10-22T02:49:26.784Z,989.50
2022-10-22T02:50:26.343Z,989.68
2022-10-22T02:51:26.328Z,989.64
2022-10-22T02:52:26.320Z,989.59
2022-10-22T02:53:26.318Z,989.61
2022-10-22T02:54:26.791Z,989.58
2022-10-22T02:55:26.314Z,989.55
2022-10-22T02:56:26.380Z,989.54
2022-10-22T02:57:26.289Z,989.56
2022-10-22T02:58:26.286Z,989.54
2022-10-22T02:59:26.302Z,989.58
2022-10-22T03:00:26.339Z,989.57
2022-10-22T03:01:26.291Z,989.59
2022-10-22T03:02:26.272Z,989.71
2022-10-22T03:03:26.252Z,989.67
2022-10-22T03:04:26.247Z,989.68
2022-10-22T03:05:26.226Z,989.69
2022-10-22T03:07:26.220Z,989.85
2022-10-22T03:08:26.215Z,989.89
2022-10-22T03:09:26.204Z,989.90
2022-10-22T03:10:26.197Z,989.90
2022-10-22T03:11:26.184Z,989.95
2022-10-22T03:12:26.199Z,990.04
2022-10-22T03:13:26.171Z,990.11
2022-10-22T03:14:26.184Z,990.12
2022-10-22T03:15:29.201Z,990.17
2022-10-22T03:16:26.149Z,990.16
2022-10-22T03:17:26.857Z,990.14
2022-10-22T03:18:26.167Z,990.14
2022-10-22T03:19:26.136Z,990.15
2022-10-22T03:20:26.125Z,990.11
2022-10-22T03:21:26.130Z,990.17
2022-10-22T03:22:26.521Z,990.12
2022-10-22T03:23:26.106Z,990.13
2022-10-22T03:24:26.101Z,990.13
2022-10-22T03:25:26.091Z,990.13
2022-10-22T03:26:26.099Z,990.07
2022-10-22T03:27:26.089Z,990.07
2022-10-22T03:28:26.650Z,990.12
2022-10-22T03:29:26.288Z,990.14
2022-10-22T03:30:26.055Z,990.19
2022-10-22T03:31:26.060Z,990.12
2022-10-22T03:32:26.075Z,990.07
2022-10-22T03:33:26.029Z,990.12
2022-10-22T03:34:26.046Z,990.12
2022-10-22T03:35:26.024Z,990.10
2022-10-22T03:36:26.015Z,990.17
2022-10-22T03:37:26.006Z,990.12
2022-10-22T03:38:26.000Z,990.11
2022-10-22T03:39:26.009Z,990.09
2022-10-22T03:40:25.975Z,990.10
2022-10-22T03:41:25.985Z,990.10
2022-10-22T03:42:25.980Z,990.13
2022-10-22T03:43:26.003Z,990.13
2022-10-22T03:44:25.958Z,990.19
2022-10-22T03:45:26.014Z,990.18
2022-10-22T03:46:26.342Z,990.16
2022-10-22T03:47:25.937Z,990.20
2022-10-22T03:48:25.934Z,990.15
2022-10-22T03:49:25.924Z,990.11
2022-10-22T03:50:25.937Z,990.10
2022-10-22T03:51:25.904Z,990.12
2022-10-22T03:52:25.932Z,990.13
2022-10-22T03:53:25.899Z,990.19
2022-10-22T03:54:25.963Z,990.23
2022-10-22T03:55:25.884Z,990.24
2022-10-22T03:56:25.873Z,990.30
2022-10-22T03:57:25.866Z,990.32
2022-10-22T03:58:25.858Z,990.43
2022-10-22T03:59:25.855Z,990.44
2022-10-22T04:00:25.854Z,990.35
2022-10-22T04:01:25.886Z,990.42
2022-10-22T04:02:25.823Z,990.43
2022-10-22T04:03:25.826Z,990.44
2022-10-22T04:04:25.829Z,990.46
2022-10-22T04:05:25.844Z,990.45
2022-10-22T04:06:25.851Z,990.42
2022-10-22T04:07:25.792Z,990.50
2022-10-22T04:08:25.804Z,990.49
2022-10-22T04:09:25.772Z,990.52
2022-10-22T04:10:25.769Z,990.53
2022-10-22T04:11:26.031Z,990.49
2022-10-22T04:12:25.752Z,990.52
2022-10-22T04:13:25.764Z,990.49
2022-10-22T04:14:25.749Z,990.53
2022-10-22T04:15:25.738Z,990.53
2022-10-22T04:16:27.589Z,990.55
2022-10-22T04:17:25.717Z,990.57
2022-10-22T04:18:25.719Z,990.60
2022-10-22T04:19:25.707Z,990.52
2022-10-22T04:20:25.695Z,990.49
2022-10-22T04:21:25.731Z,990.51
2022-10-22T04:22:25.727Z,990.50
2022-10-22T04:23:25.676Z,990.50
2022-10-22T04:24:25.672Z,990.48
2022-10-22T04:25:25.671Z,990.54
2022-10-22T04:26:26.203Z,990.52
2022-10-22T04:27:25.653Z,990.51
2022-10-22T04:28:25.653Z,990.51
2022-10-22T04:29:25.648Z,990.46
2022-10-22T04:30:25.629Z,990.49
2022-10-22T04:31:25.616Z,990.58
2022-10-22T04:32:25.720Z,990.55
2022-10-22T04:33:25.609Z,990.52
2022-10-22T04:34:25.607Z,990.49
2022-10-22T04:36:25.589Z,990.47
2022-10-22T04:37:25.591Z,990.57
2022-10-22T04:38:25.593Z,990.58
2022-10-22T04:39:25.650Z,990.57
2022-10-22T04:40:25.594Z,990.49
2022-10-22T04:41:25.554Z,990.57
2022-10-22T04:42:25.554Z,990.53
2022-10-22T04:43:25.532Z,990.54
2022-10-22T04:44:25.526Z,990.46
2022-10-22T04:45:25.537Z,990.54
2022-10-22T04:46:26.059Z,990.48
2022-10-22T04:47:25.511Z,990.48
2022-10-22T04:48:25.557Z,990.48
2022-10-22T04:49:25.496Z,990.52
2022-10-22T04:50:25.484Z,990.41
2022-10-22T04:51:25.473Z,990.41
2022-10-22T04:52:25.485Z,990.38
2022-10-22T04:53:25.466Z,990.39
2022-10-22T04:54:29.039Z,990.32
2022-10-22T04:55:26.537Z,990.36
2022-10-22T04:56:25.444Z,990.37
2022-10-22T04:57:25.440Z,990.38
2022-10-22T04:58:25.441Z,990.34
2022-10-22T04:59:25.430Z,990.31
2022-10-22T05:00:25.410Z,990.32
2022-10-22T05:01:25.470Z,990.38
2022-10-22T05:02:25.420Z,990.33
2022-10-22T05:03:25.428Z,990.39
2022-10-22T05:04:25.386Z,990.37
2022-10-22T05:05:25.385Z,990.36
2022-10-22T05:06:25.372Z,990.39
2022-10-22T05:07:25.370Z,990.40
2022-10-22T05:08:25.404Z,990.42
2022-10-22T05:09:25.367Z,990.33
2022-10-22T05:10:25.360Z,990.34
2022-10-22T05:11:25.333Z,990.45
2022-10-22T05:12:25.338Z,990.38
2022-10-22T05:13:25.375Z,990.39
2022-10-22T05:14:25.333Z,990.38
2022-10-22T05:15:25.314Z,990.38
2022-10-22T05:16:25.298Z,990.35
2022-10-22T05:17:25.295Z,990.41
2022-10-22T05:18:25.297Z,990.33
2022-10-22T05:19:25.284Z,990.33
2022-10-22T05:20:25.288Z,990.34
2022-10-22T05:21:25.264Z,990.39
2022-10-22T05:22:25.259Z,990.37
2022-10-22T05:23:25.269Z,990.44
2022-10-22T05:24:25.237Z,990.40
2022-10-22T05:25:25.231Z,990.48
2022-10-22T05:26:25.267Z,990.44
2022-10-22T05:27:25.266Z,990.46
2022-10-22T05:28:25.238Z,990.48
2022-10-22T05:29:25.223Z,990.46
2022-10-22T05:30:25.194Z,990.41
2022-10-22T05:31:25.204Z,990.46
2022-10-22T05:32:25.183Z,990.42
2022-10-22T05:33:25.170Z,990.46
2022-10-22T05:34:25.189Z,990.48
2022-10-22T05:35:25.221Z,990.52
2022-10-22T05:36:25.161Z,990.50
2022-10-22T05:37:25.152Z,990.54
2022-10-22T05:38:25.133Z,990.55
2022-10-22T05:39:25.129Z,990.57
2022-10-22T05:40:31.192Z,990.54
2022-10-22T05:41:26.128Z,990.60
2022-10-22T05:42:25.129Z,990.59
2022-10-22T05:43:25.140Z,990.54
2022-10-22T05:44:25.124Z,990.48
2022-10-22T05:45:25.096Z,990.50
2022-10-22T05:46:25.213Z,990.51
2022-10-22T05:47:25.081Z,990.50
2022-10-22T05:48:25.143Z,990.52
2022-10-22T05:49:25.066Z,990.50
2022-10-22T05:50:25.051Z,990.53
2022-10-22T05:51:25.081Z,990.61
2022-10-22T05:52:25.042Z,990.58
2022-10-22T05:53:25.049Z,990.60
2022-10-22T05:54:25.029Z,990.59
2022-10-22T05:55:25.022Z,990.62
2022-10-22T05:56:25.079Z,990.63
2022-10-22T05:57:25.089Z,990.68
2022-10-22T05:58:25.023Z,990.68
2022-10-22T05:59:24.998Z,990.73
2022-10-22T06:00:24.980Z,990.76
2022-10-22T06:01:24.984Z,990.72
2022-10-22T06:02:25.035Z,990.81
2022-10-22T06:03:24.956Z,990.84
2022-10-22T06:04:24.962Z,990.94
2022-10-22T06:05:24.955Z,990.98
2022-10-22T06:06:24.955Z,991.04
2022-10-22T06:07:29.849Z,991.00
2022-10-22T06:08:24.920Z,991.09
2022-10-22T06:09:25.267Z,991.09
2022-10-22T06:10:24.910Z,991.10
2022-10-22T06:11:24.899Z,991.10
2022-10-22T06:12:24.914Z,991.11
2022-10-22T06:13:24.890Z,991.08
2022-10-22T06:14:24.921Z,991.11
2022-10-22T06:15:24.881Z,991.10
2022-10-22T06:16:24.864Z,991.08
2022-10-22T06:17:25.496Z,991.15
2022-10-22T06:18:24.852Z,991.17
2022-10-22T06:19:25.667Z,991.17
2022-10-22T06:20:24.847Z,991.13
2022-10-22T06:21:24.846Z,991.12
2022-10-22T06:22:24.836Z,991.18
2022-10-22T06:23:24.830Z,991.21
2022-10-22T06:24:24.825Z,991.22
2022-10-22T06:25:24.815Z,991.20
2022-10-22T06:26:25.365Z,991.24
2022-10-22T06:27:24.791Z,991.27
2022-10-22T06:29:24.993Z,991.29
2022-10-22T06:30:24.802Z,991.35
2022-10-22T06:31:24.781Z,991.33
2022-10-22T06:32:24.829Z,991.40
2022-10-22T06:33:24.748Z,991.36
2022-10-22T06:34:24.747Z,991.45
2022-10-22T06:35:24.740Z,991.39
2022-10-22T06:36:24.735Z,991.43
2022-10-22T06:37:24.729Z,991.45
2022-10-22T06:38:24.714Z,991.47
2022-10-22T06:39:24.710Z,991.52
2022-10-22T06:40:24.704Z,991.48
2022-10-22T06:41:28.578Z,991.62
2022-10-22T06:42:25.691Z,991.61
2022-10-22T06:43:25.186Z,991.62
2022-10-22T06:44:24.671Z,991.66
2022-10-22T06:45:24.666Z,991.69
2022-10-22T06:46:24.685Z,991.69
2022-10-22T06:47:24.690Z,991.71
2022-10-22T06:48:24.639Z,991.75
2022-10-22T06:49:24.730Z,991.77
2022-10-22T06:50:24.631Z,991.71
2022-10-22T06:51:24.640Z,991.80
2022-10-22T06:52:24.620Z,991.67
2022-10-22T06:53:24.630Z,991.81
2022-10-22T06:54:24.617Z,991.74
2022-10-22T06:55:24.608Z,991.84
2022-10-22T06:56:24.600Z,991.82
2022-10-22T06:57:24.600Z,991.82
2022-10-22T06:58:24.572Z,991.81
2022-10-22T06:59:24.566Z,991.80
2022-10-22T07:00:24.666Z,991.80
2022-10-22T07:01:24.642Z,991.80
2022-10-22T07:02:24.573Z,991.79
2022-10-22T07:03:24.540Z,991.84
2022-10-22T07:04:24.551Z,991.95
2022-10-22T07:05:24.521Z,991.84
2022-10-22T07:06:24.529Z,991.93
2022-10-22T07:07:24.620Z,991.83
2022-10-22T07:08:24.518Z,991.84
2022-10-22T07:09:24.505Z,991.89
2022-10-22T07:10:27.184Z,991.87
2022-10-22T07:11:25.836Z,991.85
2022-10-22T07:12:24.492Z,991.85
2022-10-22T07:13:24.465Z,991.88
2022-10-22T07:14:24.470Z,991.98
2022-10-22T07:15:24.459Z,992.00
2022-10-22T07:16:28.176Z,992.00
2022-10-22T07:17:25.443Z,992.01
2022-10-22T07:18:24.458Z,992.02
2022-10-22T07:19:24.427Z,992.05
2022-10-22T07:20:24.550Z,992.04
2022-10-22T07:21:24.436Z,992.14
2022-10-22T07:22:24.408Z,992.10
2022-10-22T07:23:24.414Z,992.11
2022-10-22T07:24:24.713Z,992.11
2022-10-22T07:25:24.383Z,992.13
2022-10-22T07:26:24.386Z,992.09
2022-10-22T07:27:25.785Z,992.13
2022-10-22T07:28:24.363Z,992.12
2022-10-22T07:29:24.352Z,992.13
2022-10-22T07:30:24.358Z,992.17
2022-10-22T07:31:24.343Z,992.20
2022-10-22T07:32:25.019Z,992.13
2022-10-22T07:33:24.367Z,992.16
2022-10-22T07:34:24.345Z,992.21
2022-10-22T07:35:24.308Z,992.12
2022-10-22T07:36:24.352Z,992.20
2022-10-22T07:37:24.417Z,992.21
2022-10-22T07:38:24.293Z,992.24
2022-10-22T07:39:24.292Z,992.17
2022-10-22T07:40:24.279Z,992.18
2022-10-22T07:41:24.295Z,992.18
2022-10-22T07:42:24.291Z,992.18
2022-10-22T07:43:24.255Z,992.16
2022-10-22T07:44:24.373Z,992.14
2022-10-22T07:45:24.243Z,992.20
2022-10-22T07:46:24.236Z,992.12
2022-10-22T07:47:24.231Z,992.21
2022-10-22T07:48:24.256Z,992.19
2022-10-22T07:49:24.265Z,992.10
2022-10-22T07:50:24.222Z,992.13
2022-10-22T07:51:24.267Z,992.17
2022-10-22T07:52:24.187Z,992.22
2022-10-22T07:53:24.186Z,992.18
2022-10-22T07:54:24.181Z,992.31
2022-10-22T07:55:24.171Z,992.33
2022-10-22T07:56:24.184Z,992.35
2022-10-22T07:57:24.155Z,992.37
2022-10-22T07:58:24.145Z,992.35
2022-10-22T07:59:24.146Z,992.37
2022-10-22T08:00:25.346Z,992.39
2022-10-22T08:01:24.182Z,992.40
2022-10-22T08:02:24.129Z,992.41
2022-10-22T08:03:24.113Z,992.44
2022-10-22T08:04:24.105Z,992.37
2022-10-22T08:05:24.105Z,992.39
2022-10-22T08:06:24.135Z,992.45
2022-10-22T08:07:24.084Z,992.44
2022-10-22T08:08:27.122Z,992.41
2022-10-22T08:09:25.065Z,992.39
2022-10-22T08:10:24.267Z,992.38
2022-10-22T08:11:24.057Z,992.35
2022-10-22T08:12:24.066Z,992.36
2022-10-22T08:13:24.061Z,992.47
2022-10-22T08:14:24.058Z,992.47
2022-10-22T08:15:24.027Z,992.42
2022-10-22T08:16:24.040Z,992.45
2022-10-22T08:17:24.010Z,992.50
2022-10-22T08:18:24.006Z,992.48
2022-10-22T08:19:24.034Z,992.50
2022-10-22T08:20:23.991Z,992.46
2022-10-22T08:21:23.993Z,992.53
2022-10-22T08:22:24.003Z,992.55
2022-10-22T08:23:26.178Z,992.55
2022-10-22T08:24:23.970Z,992.56
2022-10-22T08:25:23.967Z,992.57
2022-10-22T08:26:23.952Z,992.64
2022-10-22T08:27:23.967Z,992.62
2022-10-22T08:28:23.949Z,992.64
2022-10-22T08:29:23.961Z,992.62
2022-10-22T08:30:23.929Z,992.62
2022-10-22T08:31:23.915Z,992.59
2022-10-22T08:32:24.425Z,992.65
2022-10-22T08:33:23.949Z,992.61
2022-10-22T08:34:23.890Z,992.56
2022-10-22T08:35:23.920Z,992.59
2022-10-22T08:36:23.886Z,992.65
2022-10-22T08:37:23.872Z,992.62
2022-10-22T08:38:23.901Z,992.59
2022-10-22T08:39:23.901Z,992.60
2022-10-22T08:40:23.850Z,992.62
2022-10-22T08:41:24.072Z,992.65
2022-10-22T08:42:23.858Z,992.60
2022-10-22T08:43:23.853Z,992.64
2022-10-22T08:44:23.858Z,992.62
2022-10-22T08:45:24.485Z,992.62
2022-10-22T08:46:23.816Z,992.73
2022-10-22T08:47:23.829Z,992.64
2022-10-22T08:48:23.793Z,992.64
2022-10-22T08:49:24.220Z,992.76
2022-10-22T08:50:23.794Z,992.76
2022-10-22T08:51:23.779Z,992.70
2022-10-22T08:52:23.763Z,992.78
2022-10-22T08:53:23.802Z,992.81
2022-10-22T08:54:23.793Z,992.76
2022-10-22T08:55:23.753Z,992.74
2022-10-22T08:56:23.746Z,992.74
2022-10-22T08:57:23.872Z,992.70
2022-10-22T08:58:23.724Z,992.76
2022-10-22T08:59:23.726Z,992.78
2022-10-22T09:00:23.742Z,992.77
2022-10-22T09:01:23.715Z,992.75
2022-10-22T09:02:23.706Z,992.80
2022-10-22T09:03:23.692Z,992.77
2022-10-22T09:04:23.710Z,992.75
2022-10-22T09:05:23.682Z,992.76
2022-10-22T09:06:23.670Z,992.79
2022-10-22T09:07:23.671Z,992.82
2022-10-22T09:08:23.666Z,992.75
2022-10-22T09:09:23.671Z,992.77
2022-10-22T09:10:23.670Z,992.80
2022-10-22T09:11:23.648Z,992.79
2022-10-22T09:12:23.634Z,992.77
2022-10-22T09:13:23.817Z,992.78
2022-10-22T09:14:23.625Z,992.77
2022-10-22T09:15:23.636Z,992.69
2022-10-22T09:16:23.612Z,992.75
2022-10-22T09:17:23.604Z,992.73
2022-10-22T09:18:23.609Z,992.76
2022-10-22T09:19:23.617Z,992.83
2022-10-22T09:20:23.615Z,992.74
2022-10-22T09:21:23.583Z,992.69
2022-10-22T09:22:23.652Z,992.71
2022-10-22T09:23:23.668Z,992.76
2022-10-22T09:24:23.573Z,992.77
2022-10-22T09:25:23.986Z,992.72
2022-10-22T09:26:23.565Z,992.75
2022-10-22T09:27:23.564Z,992.77
2022-10-22T09:28:23.530Z,992.77
2022-10-22T09:29:23.538Z,992.85
2022-10-22T09:30:23.527Z,992.85
2022-10-22T09:31:23.512Z,992.86
2022-10-22T09:32:23.520Z,992.85
2022-10-22T09:33:24.721Z,992.83
2022-10-22T09:34:23.486Z,992.84
2022-10-22T09:35:23.539Z,992.88
2022-10-22T09:36:23.954Z,992.83
2022-10-22T09:37:23.487Z,992.87
2022-10-22T09:38:23.504Z,992.93
2022-10-22T09:39:23.462Z,992.91
2022-10-22T09:40:23.493Z,992.92
2022-10-22T09:41:23.448Z,992.94
2022-10-22T09:42:23.538Z,992.89
2022-10-22T09:43:23.429Z,992.90
2022-10-22T09:44:23.430Z,992.91
2022-10-22T09:45:23.432Z,992.95
2022-10-22T09:46:23.410Z,992.96
2022-10-22T09:47:25.996Z,992.94
2022-10-22T09:48:24.402Z,992.88
2022-10-22T09:49:23.403Z,992.92
2022-10-22T09:50:24.070Z,992.94
2022-10-22T09:51:23.378Z,992.93
2022-10-22T09:52:23.389Z,992.89
2022-10-22T09:53:23.383Z,992.94
2022-10-22T09:54:24.326Z,992.94
2022-10-22T09:55:23.352Z,992.98
2022-10-22T09:56:23.773Z,993.03
2022-10-22T09:57:23.335Z,993.03
2022-10-22T09:58:23.352Z,993.01
2022-10-22T09:59:23.389Z,993.00
2022-10-22T10:00:23.309Z,992.99
2022-10-22T10:01:23.316Z,993.04
2022-10-22T10:02:39.072Z,993.07
2022-10-22T10:03:24.343Z,993.07
2022-10-22T10:05:23.279Z,993.07
2022-10-22T10:06:23.274Z,993.08
2022-10-22T10:07:23.278Z,993.04
2022-10-22T10:08:23.280Z,993.17
2022-10-22T10:09:23.362Z,993.16
2022-10-22T10:10:23.255Z,993.18
2022-10-22T10:11:28.063Z,993.20
2022-10-22T10:12:24.226Z,993.17
2022-10-22T10:13:23.259Z,993.17
2022-10-22T10:14:23.808Z,993.18
2022-10-22T10:15:23.228Z,993.18
2022-10-22T10:16:23.203Z,993.26
2022-10-22T10:17:23.220Z,993.34
2022-10-22T10:18:23.189Z,993.31
2022-10-22T10:19:23.251Z,993.22
2022-10-22T10:20:23.172Z,993.22
2022-10-22T10:21:23.189Z,993.19
2022-10-22T10:22:23.181Z,993.23
2022-10-22T10:23:25.250Z,993.22
2022-10-22T10:24:23.168Z,993.26
2022-10-22T10:25:23.186Z,993.22
2022-10-22T10:26:23.133Z,993.27
2022-10-22T10:27:23.136Z,993.25
2022-10-22T10:28:23.133Z,993.20
2022-10-22T10:29:23.132Z,993.22
2022-10-22T10:30:23.151Z,993.21
2022-10-22T10:31:23.101Z,993.16
2022-10-22T10:32:24.515Z,993.18
2022-10-22T10:33:23.085Z,993.20
2022-10-22T10:34:23.071Z,993.23
2022-10-22T10:35:23.090Z,993.20
2022-10-22T10:36:23.140Z,993.21
2022-10-22T10:37:23.067Z,993.21
2022-10-22T10:38:25.912Z,993.25
2022-10-22T10:39:24.112Z,993.28
2022-10-22T10:40:23.034Z,993.26
2022-10-22T10:41:23.027Z,993.25
2022-10-22T10:42:23.028Z,993.22
2022-10-22T10:43:23.037Z,993.19
2022-10-22T10:44:23.302Z,993.14
2022-10-22T10:45:22.998Z,993.21
2022-10-22T10:46:23.041Z,993.21
2022-10-22T10:47:23.020Z,993.24
2022-10-22T10:48:22.986Z,993.25
2022-10-22T10:49:23.005Z,993.18
2022-10-22T10:50:22.980Z,993.17
2022-10-22T10:51:22.981Z,993.24
2022-10-22T10:52:22.959Z,993.28
2022-10-22T10:53:22.947Z,993.31
2022-10-22T10:54:22.941Z,993.24
2022-10-22T10:55:22.928Z,993.18
2022-10-22T10:56:22.991Z,993.12
2022-10-22T10:57:22.920Z,993.07
2022-10-22T10:58:22.910Z,993.12
2022-10-22T10:59:22.893Z,993.13
2022-10-22T11:00:22.900Z,993.10
2022-10-22T11:01:22.947Z,993.04
2022-10-22T11:02:22.916Z,993.08
2022-10-22T11:03:22.927Z,993.02
2022-10-22T11:04:22.860Z,993.12
2022-10-22T11:05:22.875Z,993.09
2022-10-22T11:06:25.433Z,993.18
2022-10-22T11:07:33.811Z,993.14
2022-10-22T11:08:23.839Z,993.19
2022-10-22T11:09:22.897Z,993.11
2022-10-22T11:10:22.818Z,993.06
2022-10-22T11:11:22.819Z,993.10
2022-10-22T11:12:22.804Z,993.14
2022-10-22T11:13:22.809Z,993.19
2022-10-22T11:14:25.223Z,993.14
2022-10-22T11:15:23.806Z,993.17
2022-10-22T11:16:22.776Z,993.10
2022-10-22T11:17:22.809Z,993.15
2022-10-22T11:18:22.804Z,993.20
2022-10-22T11:20:22.793Z,993.11
2022-10-22T11:21:22.744Z,993.10
2022-10-22T11:22:26.618Z,993.16
2022-10-22T11:23:23.486Z,993.03
2022-10-22T11:24:22.735Z,993.06
2022-10-22T11:25:22.709Z,993.16
2022-10-22T11:26:22.714Z,993.16
2022-10-22T11:27:22.829Z,993.11
2022-10-22T11:28:22.702Z,993.02
2022-10-22T11:29:22.687Z,993.05
2022-10-22T11:30:22.678Z,993.04
2022-10-22T11:31:22.807Z,992.99
2022-10-22T11:32:22.717Z,992.93
2022-10-22T11:33:22.701Z,993.05
2022-10-22T11:34:33.742Z,993.06
2022-10-22T11:35:25.900Z,992.98
2022-10-22T11:36:22.788Z,993.00
2022-10-22T11:37:22.631Z,993.03
2022-10-22T11:38:22.649Z,993.03
2022-10-22T11:39:22.611Z,993.01
2022-10-22T11:40:22.601Z,993.00
2022-10-22T11:41:22.622Z,992.98
2022-10-22T11:42:24.149Z,992.92
2022-10-22T11:43:22.589Z,992.91
2022-10-22T11:44:22.585Z,992.94
2022-10-22T11:45:22.588Z,993.02
2022-10-22T11:46:22.559Z,992.96
2022-10-22T11:47:23.202Z,992.98
2022-10-22T11:48:22.554Z,992.98
2022-10-22T11:49:22.546Z,992.98
2022-10-22T11:50:22.559Z,992.93
2022-10-22T11:51:22.533Z,992.92
2022-10-22T11:52:22.541Z,992.97
2022-10-22T11:53:22.515Z,992.86
2022-10-22T11:54:22.534Z,992.86
2022-10-22T11:55:22.566Z,992.77
2022-10-22T11:56:43.504Z,992.86
2022-10-22T11:57:22.505Z,992.89
2022-10-22T11:58:22.479Z,992.77
2022-10-22T11:59:22.495Z,992.93
2022-10-22T12:00:22.472Z,992.86
2022-10-22T12:01:22.563Z,992.80
2022-10-22T12:02:22.464Z,992.81
2022-10-22T12:03:22.453Z,992.77
2022-10-22T12:04:22.522Z,992.67
2022-10-22T12:05:22.432Z,992.77
2022-10-22T12:06:22.480Z,992.84
2022-10-22T12:07:22.417Z,992.71
2022-10-22T12:08:22.422Z,992.75
2022-10-22T12:09:22.427Z,992.77
2022-10-22T12:10:22.435Z,992.74
2022-10-22T12:11:22.469Z,992.81
2022-10-22T12:12:22.381Z,992.62
2022-10-22T12:13:22.376Z,992.69
2022-10-22T12:14:22.377Z,992.63
2022-10-22T12:15:22.368Z,992.70
2022-10-22T12:16:32.122Z,992.60
2022-10-22T12:17:23.361Z,992.65
2022-10-22T12:18:22.455Z,992.65
2022-10-22T12:19:22.347Z,992.78
2022-10-22T12:20:22.334Z,992.81
2022-10-22T12:21:22.419Z,992.68
2022-10-22T12:22:22.344Z,992.72
2022-10-22T12:23:22.312Z,992.58
2022-10-22T12:24:22.304Z,992.69
2022-10-22T12:25:22.300Z,992.74
2022-10-22T12:26:22.350Z,992.63
2022-10-22T12:27:22.994Z,992.60
2022-10-22T12:28:22.291Z,992.64
2022-10-22T12:29:22.271Z,992.65
2022-10-22T12:30:22.340Z,992.73
2022-10-22T12:31:22.263Z,992.67
2022-10-22T12:32:22.276Z,992.68
2022-10-22T12:33:22.235Z,992.65